Time,TemperatureF,DewpointF,PressureIn,WindDirection,WindDirectionDegrees,WindSpeedMPH,WindSpeedGustMPH,Humidity,HourlyPrecipIn,Conditions,Clouds,dailyrainin,SolarRadiationWatts/m^2,SoftwareType,DateUTC
2013-09-03 00:01:00,52.0,49.0,29.93,NNE,33,1.0,1.0,88,0.00,,,0.00,0,weatherlink.com 1.10,2013-09-03 04:01:00,
2013-09-03 00:16:00,51.9,49.0,29.93,NE,36,0.0,2.0,88,0.00,,,0.00,0,weatherlink.com 1.10,2013-09-03 04:16:00,
2013-09-03 00:31:00,51.6,49.0,29.93,NE,36,0.0,0.0,89,0.00,,,0.00,0,weatherlink.com 1.10,2013-09-03 04:31:00,
2013-09-03 00:46:00,51.3,48.0,29.93,NE,36,0.0,0.0,89,0.00,,,0.00,0,weatherlink.com 1.10,2013-09-03 04:46:00,
2013-09-03 01:01:00,51.2,48.0,29.93,NE,36,0.0,0.0,90,0.00,,,0.00,0,weatherlink.com 1.10,2013-09-03 05:01:00,
2013-09-03 01:16:00,51.4,49.0,29.92,NE,36,0.0,2.0,90,0.00,,,0.00,0,weatherlink.com 1.10,2013-09-03 05:16:00,
2013-09-03 01:31:00,51.2,48.0,29.93,NE,36,0.0,0.0,89,0.00,,,0.00,0,weatherlink.com 1.10,2013-09-03 05:31:00,
2013-09-03 01:46:00,50.9,48.0,29.93,NE,36,0.0,1.0,89,0.00,,,0.00,0,weatherlink.com 1.10,2013-09-03 05:46:00,
2013-09-03 02:01:00,50.5,48.0,29.93,NE,36,0.0,1.0,90,0.00,,,0.00,0,weatherlink.com 1.10,2013-09-03 06:01:00,
2013-09-03 02:16:00,50.1,47.0,29.93,NE,36,0.0,0.0,90,0.00,,,0.00,0,weatherlink.com 1.10,2013-09-03 06:16:00,
2013-09-03 02:31:00,50.0,47.0,29.93,NE,36,0.0,1.0,90,0.00,,,0.00,0,weatherlink.com 1.10,2013-09-03 06:31:00,
2013-09-03 02:46:00,49.7,47.0,29.93,NE,36,0.0,0.0,91,0.00,,,0.00,0,weatherlink.com 1.10,2013-09-03 06:46:00,
2013-09-03 03:01:00,49.7,47.0,29.93,NE,36,0.0,0.0,91,0.00,,,0.00,0,weatherlink.com 1.10,2013-09-03 07:01:00,
2013-09-03 03:16:00,49.7,47.0,29.93,NE,36,0.0,0.0,91,0.00,,,0.00,0,weatherlink.com 1.10,2013-09-03 07:16:00,
2013-09-03 03:31:00,50.0,48.0,29.93,NE,36,0.0,0.0,91,0.00,,,0.00,0,weatherlink.com 1.10,2013-09-03 07:31:00,
2013-09-03 03:46:00,50.3,48.0,29.93,NE,36,0.0,0.0,91,0.00,,,0.00,0,weatherlink.com 1.10,2013-09-03 07:46:00,
2013-09-03 04:01:00,50.5,48.0,29.93,NE,36,0.0,0.0,92,0.00,,,0.00,0,weatherlink.com 1.10,2013-09-03 08:01:00,
2013-09-03 04:16:00,50.8,49.0,29.93,NE,36,0.0,0.0,92,0.00,,,0.00,0,weatherlink.com 1.10,2013-09-03 08:16:00,
2013-09-03 04:31:00,50.9,49.0,29.93,NE,36,0.0,1.0,92,0.00,,,0.00,0,weatherlink.com 1.10,2013-09-03 08:31:00,
2013-09-03 04:46:00,50.8,49.0,29.93,NE,36,0.0,1.0,92,0.00,,,0.00,0,weatherlink.com 1.10,2013-09-03 08:46:00,
2013-09-03 05:01:00,50.9,49.0,29.93,NE,36,0.0,0.0,92,0.00,,,0.00,0,weatherlink.com 1.10,2013-09-03 09:01:00,
2013-09-03 05:16:00,50.6,48.0,29.93,NE,36,0.0,0.0,92,0.00,,,0.00,0,weatherlink.com 1.10,2013-09-03 09:16:00,
2013-09-03 05:31:00,50.9,49.0,29.92,NE,36,0.0,0.0,92,0.00,,,0.00,0,weatherlink.com 1.10,2013-09-03 09:31:00,
2013-09-03 05:46:00,50.7,49.0,29.92,NE,36,0.0,0.0,92,0.00,,,0.00,0,weatherlink.com 1.10,2013-09-03 09:46:00,
2013-09-03 06:01:00,50.9,49.0,29.93,NE,36,0.0,0.0,92,0.00,,,0.00,0,weatherlink.com 1.10,2013-09-03 10:01:00,
2013-09-03 06:16:00,50.8,49.0,29.93,NE,36,0.0,0.0,92,0.00,,,0.00,0,weatherlink.com 1.10,2013-09-03 10:16:00,
2013-09-03 06:31:00,50.8,49.0,29.93,NE,36,0.0,0.0,92,0.00,,,0.00,0,weatherlink.com 1.10,2013-09-03 10:31:00,
2013-09-03 06:46:00,50.8,49.0,29.93,NE,36,0.0,0.0,92,0.00,,,0.00,0,weatherlink.com 1.10,2013-09-03 10:46:00,
2013-09-03 07:01:00,50.8,49.0,29.93,NE,36,0.0,0.0,92,0.00,,,0.00,0,weatherlink.com 1.10,2013-09-03 11:01:00,
2013-09-03 07:16:00,50.8,49.0,29.94,NE,36,0.0,0.0,92,0.00,,,0.00,0,weatherlink.com 1.10,2013-09-03 11:16:00,
2013-09-03 07:32:00,50.9,49.0,29.95,NE,36,0.0,0.0,92,0.00,,,0.00,12,weatherlink.com 1.10,2013-09-03 11:32:00,
2013-09-03 07:47:00,51.2,49.0,29.94,NE,36,0.0,0.0,92,0.00,,,0.00,19,weatherlink.com 1.10,2013-09-03 11:47:00,
2013-09-03 08:02:00,51.8,50.0,29.94,NE,36,0.0,0.0,92,0.00,,,0.00,25,weatherlink.com 1.10,2013-09-03 12:02:00,
2013-09-03 08:17:00,52.5,51.0,29.94,NE,36,0.0,0.0,93,0.00,,,0.00,30,weatherlink.com 1.10,2013-09-03 12:17:00,
2013-09-03 08:32:00,53.9,52.0,29.95,NE,36,0.0,1.0,93,0.01,,,0.01,54,weatherlink.com 1.10,2013-09-03 12:32:00,
2013-09-03 08:47:00,55.0,53.0,29.95,NE,36,0.0,1.0,93,0.01,,,0.01,47,weatherlink.com 1.10,2013-09-03 12:47:00,
2013-09-03 09:02:00,56.6,54.0,29.95,NE,36,1.0,1.0,92,0.01,,,0.01,283,weatherlink.com 1.10,2013-09-03 13:02:00,
2013-09-03 09:17:00,59.4,55.0,29.95,NE,36,0.0,1.0,86,0.01,,,0.01,49,weatherlink.com 1.10,2013-09-03 13:17:00,
2013-09-03 09:32:00,60.8,55.0,29.95,NE,36,0.0,2.0,81,0.00,,,0.01,53,weatherlink.com 1.10,2013-09-03 13:32:00,
2013-09-03 09:47:00,61.7,55.0,29.94,NE,36,0.0,1.0,78,0.00,,,0.01,54,weatherlink.com 1.10,2013-09-03 13:47:00,
2013-09-03 10:02:00,62.5,55.0,29.95,NE,36,0.0,2.0,77,0.00,,,0.01,58,weatherlink.com 1.10,2013-09-03 14:02:00,
2013-09-03 10:17:00,63.5,56.0,29.95,NE,36,1.0,2.0,76,0.00,,,0.01,62,weatherlink.com 1.10,2013-09-03 14:17:00,
2013-09-03 10:32:00,64.1,55.0,29.95,NE,39,0.0,2.0,72,0.00,,,0.01,67,weatherlink.com 1.10,2013-09-03 14:32:00,
2013-09-03 10:47:00,65.1,55.0,29.95,SSW,213,1.0,4.0,69,0.00,,,0.01,77,weatherlink.com 1.10,2013-09-03 14:47:00,
2013-09-03 11:02:00,66.0,55.0,29.94,SSE,160,0.0,3.0,67,0.00,,,0.01,104,weatherlink.com 1.10,2013-09-03 15:02:00,
2013-09-03 11:17:00,66.7,55.0,29.94,SSE,160,0.0,3.0,66,0.00,,,0.01,88,weatherlink.com 1.10,2013-09-03 15:17:00,
2013-09-03 11:32:00,67.5,56.0,29.94,ENE,65,1.0,4.0,67,0.00,,,0.01,113,weatherlink.com 1.10,2013-09-03 15:32:00,
2013-09-03 11:47:00,67.6,56.0,29.94,East,91,2.0,4.0,66,0.00,,,0.01,185,weatherlink.com 1.10,2013-09-03 15:47:00,
2013-09-03 12:02:00,67.3,56.0,29.94,SSW,193,1.0,3.0,68,0.00,,,0.01,241,weatherlink.com 1.10,2013-09-03 16:02:00,
2013-09-03 12:17:00,67.5,57.0,29.93,WSW,254,2.0,4.0,70,0.00,,,0.01,446,weatherlink.com 1.10,2013-09-03 16:17:00,
2013-09-03 12:33:00,68.8,57.0,29.93,SW,214,2.0,4.0,66,0.00,,,0.01,775,weatherlink.com 1.10,2013-09-03 16:33:00,
2013-09-03 12:48:00,70.1,57.0,29.92,SSE,153,0.0,3.0,63,0.00,,,0.01,784,weatherlink.com 1.10,2013-09-03 16:48:00,
2013-09-03 13:03:00,69.9,57.0,29.91,South,188,0.0,3.0,63,0.00,,,0.01,533,weatherlink.com 1.10,2013-09-03 17:03:00,
2013-09-03 13:18:00,71.2,57.0,29.91,ENE,78,1.0,3.0,61,0.00,,,0.01,809,weatherlink.com 1.10,2013-09-03 17:18:00,
2013-09-03 13:33:00,72.3,57.0,29.91,South,169,1.0,3.0,59,0.00,,,0.01,805,weatherlink.com 1.10,2013-09-03 17:33:00,
2013-09-03 13:48:00,72.5,58.0,29.90,SSW,192,1.0,8.0,60,0.00,,,0.01,805,weatherlink.com 1.10,2013-09-03 17:48:00,
2013-09-03 14:03:00,73.0,56.0,29.90,SSE,151,1.0,3.0,55,0.00,,,0.01,800,weatherlink.com 1.10,2013-09-03 18:03:00,
2013-09-03 14:18:00,73.6,55.0,29.89,SSE,160,1.0,3.0,53,0.00,,,0.01,802,weatherlink.com 1.10,2013-09-03 18:18:00,
2013-09-03 14:33:00,73.8,56.0,29.89,SSE,148,1.0,3.0,54,0.00,,,0.01,788,weatherlink.com 1.10,2013-09-03 18:33:00,
2013-09-03 14:48:00,74.0,54.0,29.89,SE,125,0.0,3.0,50,0.00,,,0.01,775,weatherlink.com 1.10,2013-09-03 18:48:00,
2013-09-03 15:03:00,71.7,58.0,29.89,NE,40,1.0,7.0,63,0.00,,,0.01,754,weatherlink.com 1.10,2013-09-03 19:03:00,
2013-09-03 15:18:00,70.6,58.0,29.88,NE,36,1.0,8.0,65,0.00,,,0.01,731,weatherlink.com 1.10,2013-09-03 19:18:00,
2013-09-03 15:33:00,70.3,60.0,29.88,NNE,25,0.0,4.0,71,0.00,,,0.01,715,weatherlink.com 1.10,2013-09-03 19:33:00,
2013-09-03 15:48:00,70.1,59.0,29.88,NE,46,0.0,3.0,68,0.00,,,0.01,686,weatherlink.com 1.10,2013-09-03 19:48:00,
2013-09-03 16:03:00,69.9,58.0,29.88,NE,42,1.0,5.0,67,0.00,,,0.01,668,weatherlink.com 1.10,2013-09-03 20:03:00,
2013-09-03 16:18:00,70.8,58.0,29.86,NE,49,0.0,4.0,65,0.00,,,0.01,629,weatherlink.com 1.10,2013-09-03 20:18:00,
2013-09-03 16:33:00,71.5,59.0,29.86,ENE,65,1.0,3.0,64,0.00,,,0.01,603,weatherlink.com 1.10,2013-09-03 20:33:00,
2013-09-03 16:48:00,71.6,60.0,29.85,NE,48,3.0,3.0,66,0.00,,,0.01,547,weatherlink.com 1.10,2013-09-03 20:48:00,
2013-09-03 17:03:00,72.0,60.0,29.84,ENE,59,0.0,5.0,65,0.00,,,0.01,515,weatherlink.com 1.10,2013-09-03 21:03:00,
2013-09-03 17:18:00,72.0,59.0,29.84,NE,51,2.0,4.0,64,0.00,,,0.01,473,weatherlink.com 1.10,2013-09-03 21:18:00,
2013-09-03 17:33:00,70.1,59.0,29.84,NE,49,0.0,4.0,68,0.00,,,0.01,42,weatherlink.com 1.10,2013-09-03 21:33:00,
2013-09-03 17:48:00,69.8,59.0,29.84,NE,49,1.0,2.0,69,0.00,,,0.01,37,weatherlink.com 1.10,2013-09-03 21:48:00,
2013-09-03 18:03:00,69.6,59.0,29.84,NE,49,1.0,2.0,69,0.00,,,0.01,32,weatherlink.com 1.10,2013-09-03 22:03:00,
2013-09-03 18:18:00,69.3,58.0,29.83,NE,49,0.0,3.0,68,0.00,,,0.01,26,weatherlink.com 1.10,2013-09-03 22:18:00,
2013-09-03 18:33:00,68.9,58.0,29.83,NE,49,2.0,3.0,69,0.00,,,0.01,21,weatherlink.com 1.10,2013-09-03 22:33:00,
2013-09-03 18:48:00,68.3,59.0,29.82,NE,49,0.0,1.0,72,0.00,,,0.01,19,weatherlink.com 1.10,2013-09-03 22:48:00,
2013-09-03 19:03:00,67.7,59.0,29.82,NE,49,0.0,0.0,74,0.00,,,0.01,18,weatherlink.com 1.10,2013-09-03 23:03:00,
2013-09-03 19:18:00,67.1,59.0,29.82,NE,49,0.0,0.0,76,0.00,,,0.01,14,weatherlink.com 1.10,2013-09-03 23:18:00,
2013-09-03 19:33:00,66.5,59.0,29.82,NE,49,0.0,0.0,77,0.00,,,0.01,12,weatherlink.com 1.10,2013-09-03 23:33:00,
2013-09-03 19:48:00,65.9,59.0,29.83,NE,49,0.0,0.0,79,0.00,,,0.01,11,weatherlink.com 1.10,2013-09-03 23:48:00,
2013-09-03 20:03:00,65.1,60.0,29.82,NE,49,0.0,0.0,83,0.00,,,0.01,7,weatherlink.com 1.10,2013-09-04 00:03:00,
2013-09-03 20:18:00,64.2,60.0,29.82,NE,49,0.0,0.0,85,0.00,,,0.01,0,weatherlink.com 1.10,2013-09-04 00:18:00,
2013-09-03 20:33:00,63.0,59.0,29.82,NE,49,0.0,0.0,86,0.00,,,0.01,0,weatherlink.com 1.10,2013-09-04 00:33:00,
2013-09-03 20:48:00,62.2,58.0,29.82,NE,49,0.0,0.0,87,0.00,,,0.01,0,weatherlink.com 1.10,2013-09-04 00:48:00,
2013-09-03 21:03:00,61.4,58.0,29.83,NE,49,0.0,0.0,87,0.00,,,0.01,0,weatherlink.com 1.10,2013-09-04 01:03:00,
2013-09-03 21:18:00,60.5,57.0,29.84,NE,49,0.0,0.0,87,0.00,,,0.01,0,weatherlink.com 1.10,2013-09-04 01:18:00,
2013-09-03 21:33:00,59.4,55.0,29.84,NE,49,0.0,1.0,86,0.00,,,0.01,0,weatherlink.com 1.10,2013-09-04 01:33:00,
2013-09-03 21:48:00,58.6,55.0,29.83,NE,49,0.0,0.0,88,0.00,,,0.01,0,weatherlink.com 1.10,2013-09-04 01:48:00,
2013-09-03 22:03:00,58.2,55.0,29.82,NE,49,0.0,0.0,88,0.00,,,0.01,0,weatherlink.com 1.10,2013-09-04 02:03:00,
2013-09-03 22:18:00,57.8,54.0,29.82,NE,49,0.0,1.0,88,0.00,,,0.01,0,weatherlink.com 1.10,2013-09-04 02:18:00,
2013-09-03 22:33:00,57.8,55.0,29.82,NE,49,0.0,2.0,89,0.00,,,0.01,0,weatherlink.com 1.10,2013-09-04 02:33:00,
2013-09-03 22:48:00,58.0,55.0,29.82,NE,49,0.0,2.0,88,0.00,,,0.01,0,weatherlink.com 1.10,2013-09-04 02:48:00,
2013-09-03 23:03:00,58.4,55.0,29.81,East,96,1.0,4.0,87,0.00,,,0.01,0,weatherlink.com 1.10,2013-09-04 03:03:00,
2013-09-03 23:18:00,62.6,55.0,29.80,SSE,167,2.0,9.0,77,0.00,,,0.01,0,weatherlink.com 1.10,2013-09-04 03:18:00,
2013-09-03 23:33:00,63.8,56.0,29.80,SSE,149,2.0,5.0,75,0.00,,,0.01,0,weatherlink.com 1.10,2013-09-04 03:33:00,
2013-09-03 23:48:00,65.2,56.0,29.80,SE,140,2.0,7.0,72,0.00,,,0.01,0,weatherlink.com 1.10,2013-09-04 03:48:00,